sensor_id;sensor_type;location;lat;lon;timestamp;pressure;altitude;pressure_sealevel;temperature;humidity
81181;BME280;70650;51.408;7.132;2024-01-10T00:00:31;101735.53;;;-5.39;61.12
81181;BME280;70650;51.408;7.132;2024-01-10T00:02:56;101733.63;;;-5.45;61.26
81181;BME280;70650;51.408;7.132;2024-01-10T00:05:23;101729.50;;;-5.40;61.38
81181;BME280;70650;51.408;7.132;2024-01-10T00:07:48;101729.47;;;-5.41;61.07
81181;BME280;70650;51.408;7.132;2024-01-10T00:10:13;101726.50;;;-5.53;61.02
81181;BME280;70650;51.408;7.132;2024-01-10T00:12:39;101722.53;;;-5.44;61.14
81181;BME280;70650;51.408;7.132;2024-01-10T00:15:04;101725.50;;;-5.57;60.62
81181;BME280;70650;51.408;7.132;2024-01-10T00:17:31;101720.34;;;-5.57;60.92
81181;BME280;70650;51.408;7.132;2024-01-10T00:19:56;101717.22;;;-5.48;60.66
81181;BME280;70650;51.408;7.132;2024-01-10T00:22:21;101717.03;;;-5.54;60.78
81181;BME280;70650;51.408;7.132;2024-01-10T00:24:48;101717.94;;;-5.52;61.05
81181;BME280;70650;51.408;7.132;2024-01-10T00:27:13;101710.03;;;-5.57;61.10
81181;BME280;70650;51.408;7.132;2024-01-10T00:29:38;101713.81;;;-5.47;61.15
81181;BME280;70650;51.408;7.132;2024-01-10T00:32:04;101709.56;;;-5.45;61.37
81181;BME280;70650;51.408;7.132;2024-01-10T00:34:30;101706.94;;;-5.47;60.98
81181;BME280;70650;51.408;7.132;2024-01-10T00:36:55;101708.50;;;-5.52;60.31
81181;BME280;70650;51.408;7.132;2024-01-10T00:39:20;101700.59;;;-5.56;60.91
81181;BME280;70650;51.408;7.132;2024-01-10T00:41:45;101702.38;;;-5.55;61.18
81181;BME280;70650;51.408;7.132;2024-01-10T00:44:12;101707.91;;;-5.70;61.55
81181;BME280;70650;51.408;7.132;2024-01-10T00:46:37;101700.22;;;-5.69;61.40
81181;BME280;70650;51.408;7.132;2024-01-10T00:49:04;101698.56;;;-5.67;61.16
81181;BME280;70650;51.408;7.132;2024-01-10T00:51:29;101703.78;;;-5.65;61.14
81181;BME280;70650;51.408;7.132;2024-01-10T00:53:54;101692.69;;;-5.63;60.69
81181;BME280;70650;51.408;7.132;2024-01-10T00:56:20;101701.16;;;-5.67;61.49
81181;BME280;70650;51.408;7.132;2024-01-10T00:58:45;101704.59;;;-5.66;61.18
81181;BME280;70650;51.408;7.132;2024-01-10T01:01:10;101690.78;;;-5.68;61.01
81181;BME280;70650;51.408;7.132;2024-01-10T01:03:36;101694.31;;;-5.66;61.61
81181;BME280;70650;51.408;7.132;2024-01-10T01:06:01;101695.25;;;-5.63;61.58
81181;BME280;70650;51.408;7.132;2024-01-10T01:08:26;101695.06;;;-5.69;61.00
81181;BME280;70650;51.408;7.132;2024-01-10T01:10:52;101684.75;;;-5.69;61.02
81181;BME280;70650;51.408;7.132;2024-01-10T01:13:18;101687.53;;;-5.63;61.20
81181;BME280;70650;51.408;7.132;2024-01-10T01:15:44;101691.41;;;-5.75;60.95
81181;BME280;70650;51.408;7.132;2024-01-10T01:18:11;101688.16;;;-5.70;61.26
81181;BME280;70650;51.408;7.132;2024-01-10T01:20:38;101684.50;;;-5.76;60.68
81181;BME280;70650;51.408;7.132;2024-01-10T01:23:04;101683.88;;;-5.69;60.59
81181;BME280;70650;51.408;7.132;2024-01-10T01:25:29;101683.19;;;-5.64;60.46
81181;BME280;70650;51.408;7.132;2024-01-10T01:27:55;101679.59;;;-5.69;60.67
81181;BME280;70650;51.408;7.132;2024-01-10T01:30:20;101678.56;;;-5.74;60.81
81181;BME280;70650;51.408;7.132;2024-01-10T01:32:47;101677.97;;;-5.67;60.89
81181;BME280;70650;51.408;7.132;2024-01-10T01:35:12;101682.09;;;-5.72;60.67
81181;BME280;70650;51.408;7.132;2024-01-10T01:37:37;101671.88;;;-5.69;60.96
81181;BME280;70650;51.408;7.132;2024-01-10T01:40:03;101675.22;;;-5.71;61.14
81181;BME280;70650;51.408;7.132;2024-01-10T01:42:28;101664.06;;;-5.72;60.90
81181;BME280;70650;51.408;7.132;2024-01-10T01:44:53;101663.31;;;-5.68;60.71
81181;BME280;70650;51.408;7.132;2024-01-10T01:47:19;101658.69;;;-5.78;61.00
81181;BME280;70650;51.408;7.132;2024-01-10T01:49:45;101662.16;;;-5.77;60.58
81181;BME280;70650;51.408;7.132;2024-01-10T01:52:12;101660.66;;;-5.71;60.75
81181;BME280;70650;51.408;7.132;2024-01-10T01:54:39;101666.09;;;-5.62;60.54
81181;BME280;70650;51.408;7.132;2024-01-10T01:57:05;101660.53;;;-5.74;60.63
81181;BME280;70650;51.408;7.132;2024-01-10T01:59:30;101663.97;;;-5.73;60.77
81181;BME280;70650;51.408;7.132;2024-01-10T02:01:58;101655.28;;;-5.77;60.83
81181;BME280;70650;51.408;7.132;2024-01-10T02:04:26;101658.59;;;-5.81;60.52
81181;BME280;70650;51.408;7.132;2024-01-10T02:06:52;101661.38;;;-5.75;61.10
81181;BME280;70650;51.408;7.132;2024-01-10T02:09:17;101657.66;;;-5.83;60.82
81181;BME280;70650;51.408;7.132;2024-01-10T02:11:43;101663.66;;;-5.84;61.15
81181;BME280;70650;51.408;7.132;2024-01-10T02:14:08;101657.59;;;-5.84;60.73
81181;BME280;70650;51.408;7.132;2024-01-10T02:16:33;101653.56;;;-5.78;61.02
81181;BME280;70650;51.408;7.132;2024-01-10T02:18:59;101651.69;;;-5.82;60.65
81181;BME280;70650;51.408;7.132;2024-01-10T02:21:25;101650.50;;;-5.93;61.45
81181;BME280;70650;51.408;7.132;2024-01-10T02:23:50;101651.56;;;-5.85;61.02
81181;BME280;70650;51.408;7.132;2024-01-10T02:26:16;101647.22;;;-5.88;61.12
81181;BME280;70650;51.408;7.132;2024-01-10T02:28:41;101652.16;;;-5.95;61.02
81181;BME280;70650;51.408;7.132;2024-01-10T02:31:06;101640.16;;;-5.95;61.53
81181;BME280;70650;51.408;7.132;2024-01-10T02:33:32;101641.94;;;-5.92;62.11
81181;BME280;70650;51.408;7.132;2024-01-10T02:35:57;101641.78;;;-5.97;61.76
81181;BME280;70650;51.408;7.132;2024-01-10T02:38:22;101639.97;;;-5.99;61.56
81181;BME280;70650;51.408;7.132;2024-01-10T02:40:49;101634.19;;;-5.92;61.60
81181;BME280;70650;51.408;7.132;2024-01-10T02:43:14;101645.09;;;-6.01;62.65
81181;BME280;70650;51.408;7.132;2024-01-10T02:45:40;101632.97;;;-6.03;62.33
81181;BME280;70650;51.408;7.132;2024-01-10T02:48:05;101633.09;;;-6.00;62.06
81181;BME280;70650;51.408;7.132;2024-01-10T02:50:30;101626.13;;;-6.03;61.89
81181;BME280;70650;51.408;7.132;2024-01-10T02:52:56;101632.06;;;-6.05;62.36
81181;BME280;70650;51.408;7.132;2024-01-10T02:55:22;101631.09;;;-6.07;63.18
81181;BME280;70650;51.408;7.132;2024-01-10T02:57:47;101626.41;;;-6.19;62.73
81181;BME280;70650;51.408;7.132;2024-01-10T03:00:12;101622.50;;;-6.33;63.74
81181;BME280;70650;51.408;7.132;2024-01-10T03:02:38;101622.00;;;-6.47;64.42
81181;BME280;70650;51.408;7.132;2024-01-10T03:05:03;101619.44;;;-6.47;64.27
81181;BME280;70650;51.408;7.132;2024-01-10T03:07:29;101614.25;;;-6.49;63.77
81181;BME280;70650;51.408;7.132;2024-01-10T03:09:54;101620.38;;;-6.45;64.11
81181;BME280;70650;51.408;7.132;2024-01-10T03:12:20;101620.47;;;-6.42;64.08
81181;BME280;70650;51.408;7.132;2024-01-10T03:14:45;101625.75;;;-6.39;63.81
81181;BME280;70650;51.408;7.132;2024-01-10T03:17:10;101626.66;;;-6.37;63.03
81181;BME280;70650;51.408;7.132;2024-01-10T03:19:36;101632.75;;;-6.35;63.23
81181;BME280;70650;51.408;7.132;2024-01-10T03:22:08;101615.63;;;-6.34;63.71
81181;BME280;70650;51.408;7.132;2024-01-10T03:24:33;101612.84;;;-6.41;64.22
81181;BME280;70650;51.408;7.132;2024-01-10T03:26:59;101613.59;;;-6.43;64.08
81181;BME280;70650;51.408;7.132;2024-01-10T03:29:25;101621.34;;;-6.42;63.65
81181;BME280;70650;51.408;7.132;2024-01-10T03:31:50;101610.84;;;-6.48;64.37
81181;BME280;70650;51.408;7.132;2024-01-10T03:34:15;101615.84;;;-6.52;65.27
81181;BME280;70650;51.408;7.132;2024-01-10T03:36:43;101620.25;;;-6.48;64.44
81181;BME280;70650;51.408;7.132;2024-01-10T03:39:08;101629.03;;;-6.43;64.88
81181;BME280;70650;51.408;7.132;2024-01-10T03:41:34;101630.69;;;-6.45;64.64
81181;BME280;70650;51.408;7.132;2024-01-10T03:43:59;101627.28;;;-6.44;64.46
81181;BME280;70650;51.408;7.132;2024-01-10T03:46:24;101621.22;;;-6.46;65.33
81181;BME280;70650;51.408;7.132;2024-01-10T03:48:52;101615.91;;;-6.51;64.87
81181;BME280;70650;51.408;7.132;2024-01-10T03:51:18;101613.03;;;-6.58;64.59
81181;BME280;70650;51.408;7.132;2024-01-10T03:53:44;101611.13;;;-6.64;64.93
81181;BME280;70650;51.408;7.132;2024-01-10T03:56:12;101613.59;;;-6.67;65.17
81181;BME280;70650;51.408;7.132;2024-01-10T03:58:39;101607.25;;;-6.77;65.60
81181;BME280;70650;51.408;7.132;2024-01-10T04:01:05;101605.28;;;-6.84;65.92
81181;BME280;70650;51.408;7.132;2024-01-10T04:03:33;101617.25;;;-6.84;66.36
81181;BME280;70650;51.408;7.132;2024-01-10T04:05:59;101615.28;;;-6.91;66.96
81181;BME280;70650;51.408;7.132;2024-01-10T04:08:25;101609.31;;;-6.90;67.77
81181;BME280;70650;51.408;7.132;2024-01-10T04:10:50;101609.97;;;-6.96;68.21
81181;BME280;70650;51.408;7.132;2024-01-10T04:13:15;101608.22;;;-6.97;67.84
81181;BME280;70650;51.408;7.132;2024-01-10T04:15:41;101609.84;;;-6.99;67.82
81181;BME280;70650;51.408;7.132;2024-01-10T04:18:06;101599.22;;;-7.08;67.50
81181;BME280;70650;51.408;7.132;2024-01-10T04:20:31;101602.13;;;-6.99;67.71
81181;BME280;70650;51.408;7.132;2024-01-10T04:22:57;101598.69;;;-7.00;67.64
81181;BME280;70650;51.408;7.132;2024-01-10T04:25:22;101604.69;;;-6.99;67.57
81181;BME280;70650;51.408;7.132;2024-01-10T04:27:47;101601.69;;;-6.87;66.65
81181;BME280;70650;51.408;7.132;2024-01-10T04:30:15;101598.25;;;-6.88;66.91
81181;BME280;70650;51.408;7.132;2024-01-10T04:32:40;101594.75;;;-6.90;66.82
81181;BME280;70650;51.408;7.132;2024-01-10T04:35:07;101586.19;;;-6.90;66.99
81181;BME280;70650;51.408;7.132;2024-01-10T04:37:33;101589.63;;;-6.90;67.05
81181;BME280;70650;51.408;7.132;2024-01-10T04:39:58;101593.00;;;-6.91;66.77
81181;BME280;70650;51.408;7.132;2024-01-10T04:42:23;101581.13;;;-6.87;66.59
81181;BME280;70650;51.408;7.132;2024-01-10T04:44:49;101586.28;;;-6.87;67.44
81181;BME280;70650;51.408;7.132;2024-01-10T04:47:15;101590.53;;;-6.88;67.08
81181;BME280;70650;51.408;7.132;2024-01-10T04:49:40;101588.34;;;-6.77;66.75
81181;BME280;70650;51.408;7.132;2024-01-10T04:52:05;101594.72;;;-6.68;67.27
81181;BME280;70650;51.408;7.132;2024-01-10T04:54:31;101592.22;;;-6.64;66.73
81181;BME280;70650;51.408;7.132;2024-01-10T04:56:56;101598.03;;;-6.70;66.59
81181;BME280;70650;51.408;7.132;2024-01-10T04:59:21;101598.34;;;-6.62;66.08
81181;BME280;70650;51.408;7.132;2024-01-10T05:01:47;101598.88;;;-6.71;65.99
81181;BME280;70650;51.408;7.132;2024-01-10T05:04:12;101594.50;;;-6.74;66.57
81181;BME280;70650;51.408;7.132;2024-01-10T05:06:37;101582.34;;;-6.78;65.95
81181;BME280;70650;51.408;7.132;2024-01-10T05:09:02;101589.41;;;-6.72;65.94
81181;BME280;70650;51.408;7.132;2024-01-10T05:11:29;101595.53;;;-6.69;65.93
81181;BME280;70650;51.408;7.132;2024-01-10T05:13:54;101589.44;;;-6.71;66.05
81181;BME280;70650;51.408;7.132;2024-01-10T05:16:20;101597.13;;;-6.72;65.89
81181;BME280;70650;51.408;7.132;2024-01-10T05:18:45;101592.09;;;-6.69;65.97
81181;BME280;70650;51.408;7.132;2024-01-10T05:21:11;101589.56;;;-6.68;65.71
81181;BME280;70650;51.408;7.132;2024-01-10T05:23:37;101586.84;;;-6.72;65.75
81181;BME280;70650;51.408;7.132;2024-01-10T05:26:04;101584.03;;;-6.78;65.90
81181;BME280;70650;51.408;7.132;2024-01-10T05:28:29;101593.88;;;-6.67;65.74
81181;BME280;70650;51.408;7.132;2024-01-10T05:30:56;101595.31;;;-6.75;65.62
81181;BME280;70650;51.408;7.132;2024-01-10T05:33:22;101587.00;;;-6.68;65.66
81181;BME280;70650;51.408;7.132;2024-01-10T05:35:47;101585.31;;;-6.67;65.33
81181;BME280;70650;51.408;7.132;2024-01-10T05:38:12;101580.03;;;-6.70;65.84
81181;BME280;70650;51.408;7.132;2024-01-10T05:40:38;101580.25;;;-6.64;66.02
81181;BME280;70650;51.408;7.132;2024-01-10T05:43:03;101587.09;;;-6.64;65.48
81181;BME280;70650;51.408;7.132;2024-01-10T05:45:28;101588.88;;;-6.63;65.60
81181;BME280;70650;51.408;7.132;2024-01-10T05:47:55;101595.84;;;-6.59;65.54
81181;BME280;70650;51.408;7.132;2024-01-10T05:50:21;101593.22;;;-6.61;66.00
81181;BME280;70650;51.408;7.132;2024-01-10T05:52:47;101589.75;;;-6.63;66.27
81181;BME280;70650;51.408;7.132;2024-01-10T05:55:12;101583.47;;;-6.70;65.75
81181;BME280;70650;51.408;7.132;2024-01-10T05:57:38;101577.19;;;-6.78;66.12
81181;BME280;70650;51.408;7.132;2024-01-10T06:00:05;101585.97;;;-6.73;66.36
81181;BME280;70650;51.408;7.132;2024-01-10T06:02:41;101590.41;;;-6.69;66.58
81181;BME280;70650;51.408;7.132;2024-01-10T06:05:10;101581.94;;;-6.64;66.60
81181;BME280;70650;51.408;7.132;2024-01-10T06:07:36;101588.03;;;-6.62;66.20
81181;BME280;70650;51.408;7.132;2024-01-10T06:10:02;101579.13;;;-6.72;66.35
81181;BME280;70650;51.408;7.132;2024-01-10T06:12:27;101579.13;;;-6.72;66.29
81181;BME280;70650;51.408;7.132;2024-01-10T06:14:53;101585.63;;;-6.82;67.05
81181;BME280;70650;51.408;7.132;2024-01-10T06:17:18;101590.31;;;-6.70;66.38
81181;BME280;70650;51.408;7.132;2024-01-10T06:19:44;101585.97;;;-6.73;65.91
81181;BME280;70650;51.408;7.132;2024-01-10T06:22:09;101585.31;;;-6.67;66.41
81181;BME280;70650;51.408;7.132;2024-01-10T06:24:36;101581.56;;;-6.75;66.93
81181;BME280;70650;51.408;7.132;2024-01-10T06:27:03;101581.34;;;-6.81;66.80
81181;BME280;70650;51.408;7.132;2024-01-10T06:29:28;101581.69;;;-6.72;66.56
81181;BME280;70650;51.408;7.132;2024-01-10T06:31:53;101577.97;;;-6.80;67.09
81181;BME280;70650;51.408;7.132;2024-01-10T06:34:21;101574.75;;;-6.75;66.18
81181;BME280;70650;51.408;7.132;2024-01-10T06:36:47;101593.75;;;-6.70;66.57
81181;BME280;70650;51.408;7.132;2024-01-10T06:39:13;101598.38;;;-6.61;66.14
81181;BME280;70650;51.408;7.132;2024-01-10T06:41:39;101591.66;;;-6.57;66.13
81181;BME280;70650;51.408;7.132;2024-01-10T06:44:04;101596.69;;;-6.60;66.27
81181;BME280;70650;51.408;7.132;2024-01-10T06:46:31;101592.53;;;-6.57;66.11
81181;BME280;70650;51.408;7.132;2024-01-10T06:48:57;101597.59;;;-6.58;65.97
81181;BME280;70650;51.408;7.132;2024-01-10T06:51:22;101593.19;;;-6.62;66.09
81181;BME280;70650;51.408;7.132;2024-01-10T06:53:48;101594.81;;;-6.64;66.60
81181;BME280;70650;51.408;7.132;2024-01-10T06:56:13;101592.19;;;-6.66;67.07
81181;BME280;70650;51.408;7.132;2024-01-10T06:58:40;101583.44;;;-6.71;67.10
81181;BME280;70650;51.408;7.132;2024-01-10T07:01:11;101592.03;;;-6.71;67.28
81181;BME280;70650;51.408;7.132;2024-01-10T07:03:38;101587.75;;;-6.70;66.79
81181;BME280;70650;51.408;7.132;2024-01-10T07:06:04;101591.38;;;-6.65;67.21
81181;BME280;70650;51.408;7.132;2024-01-10T07:08:30;101587.88;;;-6.67;67.16
81181;BME280;70650;51.408;7.132;2024-01-10T07:10:56;101589.97;;;-6.57;67.26
81181;BME280;70650;51.408;7.132;2024-01-10T07:13:22;101592.09;;;-6.69;67.45
81181;BME280;70650;51.408;7.132;2024-01-10T07:15:47;101585.34;;;-6.65;67.48
81181;BME280;70650;51.408;7.132;2024-01-10T07:18:12;101588.03;;;-6.62;67.27
81181;BME280;70650;51.408;7.132;2024-01-10T07:20:38;101592.41;;;-6.60;67.69
81181;BME280;70650;51.408;7.132;2024-01-10T07:23:03;101592.16;;;-6.68;67.54
81181;BME280;70650;51.408;7.132;2024-01-10T07:25:29;101588.97;;;-6.60;67.76
81181;BME280;70650;51.408;7.132;2024-01-10T07:27:54;101589.56;;;-6.68;67.33
81181;BME280;70650;51.408;7.132;2024-01-10T07:30:20;101589.75;;;-6.63;67.57
81181;BME280;70650;51.408;7.132;2024-01-10T07:32:45;101590.72;;;-6.59;67.82
81181;BME280;70650;51.408;7.132;2024-01-10T07:35:12;101589.63;;;-6.66;67.70
81181;BME280;70650;51.408;7.132;2024-01-10T07:37:39;101592.34;;;-6.61;67.97
81181;BME280;70650;51.408;7.132;2024-01-10T07:40:05;101591.50;;;-6.62;67.88
81181;BME280;70650;51.408;7.132;2024-01-10T07:42:34;101595.63;;;-6.65;67.98
81181;BME280;70650;51.408;7.132;2024-01-10T07:45:01;101596.59;;;-6.63;68.06
81181;BME280;70650;51.408;7.132;2024-01-10T07:47:46;101592.16;;;-6.68;67.91
81181;BME280;70650;51.408;7.132;2024-01-10T07:50:12;101586.38;;;-6.60;68.23
81181;BME280;70650;51.408;7.132;2024-01-10T07:52:40;101594.22;;;-6.57;67.82
81181;BME280;70650;51.408;7.132;2024-01-10T07:55:06;101578.50;;;-6.65;68.23
81181;BME280;70650;51.408;7.132;2024-01-10T07:57:33;101582.13;;;-6.60;67.48
81181;BME280;70650;51.408;7.132;2024-01-10T07:59:59;101580.72;;;-6.52;67.56
81181;BME280;70650;51.408;7.132;2024-01-10T08:02:24;101578.88;;;-6.54;67.67
81181;BME280;70650;51.408;7.132;2024-01-10T08:04:49;101585.13;;;-6.48;67.60
81181;BME280;70650;51.408;7.132;2024-01-10T08:07:16;101581.50;;;-6.53;68.00
81181;BME280;70650;51.408;7.132;2024-01-10T08:09:41;101586.94;;;-6.45;67.30
81181;BME280;70650;51.408;7.132;2024-01-10T08:12:07;101577.47;;;-6.46;66.93
81181;BME280;70650;51.408;7.132;2024-01-10T08:14:32;101590.13;;;-6.27;67.25
81181;BME280;70650;51.408;7.132;2024-01-10T08:16:58;101597.19;;;-6.21;67.28
81181;BME280;70650;51.408;7.132;2024-01-10T08:19:24;101595.59;;;-6.18;67.24
81181;BME280;70650;51.408;7.132;2024-01-10T08:21:51;101586.53;;;-6.32;66.48
81181;BME280;70650;51.408;7.132;2024-01-10T08:24:18;101583.69;;;-6.39;66.26
81181;BME280;70650;51.408;7.132;2024-01-10T08:26:43;101582.19;;;-6.33;66.76
81181;BME280;70650;51.408;7.132;2024-01-10T08:29:08;101582.19;;;-6.33;66.22
81181;BME280;70650;51.408;7.132;2024-01-10T08:31:34;101593.63;;;-6.25;66.58
81181;BME280;70650;51.408;7.132;2024-01-10T08:34:00;101593.97;;;-6.14;66.56
81181;BME280;70650;51.408;7.132;2024-01-10T08:36:26;101597.53;;;-6.10;66.82
81181;BME280;70650;51.408;7.132;2024-01-10T08:38:52;101604.41;;;-6.11;66.90
81181;BME280;70650;51.408;7.132;2024-01-10T08:41:17;101589.81;;;-6.10;66.52
81181;BME280;70650;51.408;7.132;2024-01-10T08:43:45;101588.28;;;-6.05;66.83
81181;BME280;70650;51.408;7.132;2024-01-10T08:46:10;101601.25;;;-6.02;66.54
81181;BME280;70650;51.408;7.132;2024-01-10T08:48:36;101593.09;;;-5.89;67.00
81181;BME280;70650;51.408;7.132;2024-01-10T08:51:02;101591.47;;;-5.86;66.51
81181;BME280;70650;51.408;7.132;2024-01-10T08:53:27;101601.91;;;-5.81;66.28
81181;BME280;70650;51.408;7.132;2024-01-10T08:55:53;101603.09;;;-5.71;66.97
81181;BME280;70650;51.408;7.132;2024-01-10T08:58:18;101602.50;;;-5.63;66.90
81181;BME280;70650;51.408;7.132;2024-01-10T09:00:43;101600.75;;;-5.64;66.41
81181;BME280;70650;51.408;7.132;2024-01-10T09:03:08;101602.13;;;-5.75;65.43
81181;BME280;70650;51.408;7.132;2024-01-10T09:05:34;101597.22;;;-5.67;65.44
81181;BME280;70650;51.408;7.132;2024-01-10T09:08:00;101604.53;;;-5.52;65.18
81181;BME280;70650;51.408;7.132;2024-01-10T09:10:25;101617.88;;;-5.66;64.93
81181;BME280;70650;51.408;7.132;2024-01-10T09:12:53;101614.78;;;-5.55;65.00
81181;BME280;70650;51.408;7.132;2024-01-10T09:15:18;101624.59;;;-5.44;64.45
81181;BME280;70650;51.408;7.132;2024-01-10T09:17:44;101615.66;;;-5.55;64.22
81181;BME280;70650;51.408;7.132;2024-01-10T09:20:10;101620.84;;;-5.53;64.49
81181;BME280;70650;51.408;7.132;2024-01-10T09:22:36;101622.63;;;-5.51;64.05
81181;BME280;70650;51.408;7.132;2024-01-10T09:25:03;101618.44;;;-5.47;64.24
81181;BME280;70650;51.408;7.132;2024-01-10T09:27:32;101625.47;;;-5.43;64.41
81181;BME280;70650;51.408;7.132;2024-01-10T09:30:02;101625.53;;;-5.40;63.97
81181;BME280;70650;51.408;7.132;2024-01-10T09:32:28;101617.38;;;-5.27;63.66
81181;BME280;70650;51.408;7.132;2024-01-10T09:34:56;101619.53;;;-5.12;64.19
81181;BME280;70650;51.408;7.132;2024-01-10T09:37:21;101616.06;;;-5.13;63.42
81181;BME280;70650;51.408;7.132;2024-01-10T09:39:48;101621.00;;;-4.92;63.35
81181;BME280;70650;51.408;7.132;2024-01-10T09:42:14;101612.16;;;-5.00;63.00
81181;BME280;70650;51.408;7.132;2024-01-10T09:44:40;101621.91;;;-4.90;62.96
81181;BME280;70650;51.408;7.132;2024-01-10T09:47:06;101618.84;;;-5.07;63.05
81181;BME280;70650;51.408;7.132;2024-01-10T09:49:32;101624.47;;;-4.90;63.01
81181;BME280;70650;51.408;7.132;2024-01-10T09:51:59;101628.78;;;-4.90;62.70
81181;BME280;70650;51.408;7.132;2024-01-10T09:54:26;101625.63;;;-4.80;62.55
81181;BME280;70650;51.408;7.132;2024-01-10T09:56:54;101624.25;;;-4.69;62.39
81181;BME280;70650;51.408;7.132;2024-01-10T09:59:20;101619.22;;;-4.64;62.45
81181;BME280;70650;51.408;7.132;2024-01-10T10:01:46;101608.56;;;-4.43;62.37
81181;BME280;70650;51.408;7.132;2024-01-10T10:04:13;101603.88;;;-4.27;61.23
81181;BME280;70650;51.408;7.132;2024-01-10T10:06:41;101613.28;;;-4.29;61.84
81181;BME280;70650;51.408;7.132;2024-01-10T10:09:10;101607.38;;;-4.24;61.20
81181;BME280;70650;51.408;7.132;2024-01-10T10:11:36;101612.38;;;-4.31;60.58
81181;BME280;70650;51.408;7.132;2024-01-10T10:14:14;101614.06;;;-4.31;60.98
81181;BME280;70650;51.408;7.132;2024-01-10T10:16:40;101613.88;;;-4.06;61.08
81181;BME280;70650;51.408;7.132;2024-01-10T10:19:06;101613.56;;;-3.85;60.58
81181;BME280;70650;51.408;7.132;2024-01-10T10:21:31;101609.31;;;-3.81;59.86
81181;BME280;70650;51.408;7.132;2024-01-10T10:23:58;101608.09;;;-3.61;59.83
81181;BME280;70650;51.408;7.132;2024-01-10T10:26:23;101613.56;;;-3.49;59.97
81181;BME280;70650;51.408;7.132;2024-01-10T10:28:49;101606.69;;;-3.47;58.63
81181;BME280;70650;51.408;7.132;2024-01-10T10:31:19;101603.59;;;-3.32;59.33
81181;BME280;70650;51.408;7.132;2024-01-10T10:33:45;101593.75;;;-3.09;58.49
81181;BME280;70650;51.408;7.132;2024-01-10T10:36:10;101602.63;;;-2.98;58.55
81181;BME280;70650;51.408;7.132;2024-01-10T10:38:38;101601.03;;;-2.91;58.08
81181;BME280;70650;51.408;7.132;2024-01-10T10:41:05;101599.00;;;-3.06;57.82
81181;BME280;70650;51.408;7.132;2024-01-10T10:43:35;101604.44;;;-2.94;57.85
81181;BME280;70650;51.408;7.132;2024-01-10T10:46:09;101607.16;;;-2.87;57.65
81181;BME280;70650;51.408;7.132;2024-01-10T10:48:37;101596.78;;;-2.89;57.46
81181;BME280;70650;51.408;7.132;2024-01-10T10:51:10;101594.75;;;-3.02;57.50
81181;BME280;70650;51.408;7.132;2024-01-10T10:53:39;101595.44;;;-2.70;56.92
81181;BME280;70650;51.408;7.132;2024-01-10T10:56:08;101589.84;;;-2.90;57.17
81181;BME280;70650;51.408;7.132;2024-01-10T10:58:35;101587.91;;;-2.58;57.67
81181;BME280;70650;51.408;7.132;2024-01-10T11:01:05;101584.75;;;-2.43;56.65
81181;BME280;70650;51.408;7.132;2024-01-10T11:03:38;101592.88;;;-2.22;56.13
81181;BME280;70650;51.408;7.132;2024-01-10T11:06:12;101585.97;;;-2.23;56.75
81181;BME280;70650;51.408;7.132;2024-01-10T11:08:49;101587.97;;;-2.08;55.88
81181;BME280;70650;51.408;7.132;2024-01-10T11:16:42;101578.63;;;-1.98;54.59
81181;BME280;70650;51.408;7.132;2024-01-10T11:19:35;101576.25;;;-2.34;55.72
81181;BME280;70650;51.408;7.132;2024-01-10T11:24:49;101577.34;;;-2.22;55.34
81181;BME280;70650;51.408;7.132;2024-01-10T11:27:15;101581.50;;;-1.81;54.82
81181;BME280;70650;51.408;7.132;2024-01-10T11:29:42;101580.06;;;-1.02;53.77
81181;BME280;70650;51.408;7.132;2024-01-10T11:32:13;101580.38;;;-0.74;52.50
81181;BME280;70650;51.408;7.132;2024-01-10T11:34:49;101577.22;;;-0.49;51.23
81181;BME280;70650;51.408;7.132;2024-01-10T11:37:15;101581.31;;;0.17;51.24
81181;BME280;70650;51.408;7.132;2024-01-10T11:39:41;101566.75;;;0.41;49.20
81181;BME280;70650;51.408;7.132;2024-01-10T11:42:08;101558.31;;;0.82;47.70
81181;BME280;70650;51.408;7.132;2024-01-10T11:44:46;101561.88;;;0.99;46.74
81181;BME280;70650;51.408;7.132;2024-01-10T11:47:13;101560.94;;;0.82;48.16
81181;BME280;70650;51.408;7.132;2024-01-10T11:49:40;101554.13;;;1.08;47.42
81181;BME280;70650;51.408;7.132;2024-01-10T11:52:05;101548.19;;;1.53;46.38
81181;BME280;70650;51.408;7.132;2024-01-10T11:54:45;101554.13;;;1.11;48.14
81181;BME280;70650;51.408;7.132;2024-01-10T11:57:12;101545.47;;;1.24;47.03
81181;BME280;70650;51.408;7.132;2024-01-10T11:59:42;101546.47;;;2.20;45.77
81181;BME280;70650;51.408;7.132;2024-01-10T12:02:10;101549.09;;;2.27;44.91
81181;BME280;70650;51.408;7.132;2024-01-10T12:04:35;101544.72;;;2.55;43.92
81181;BME280;70650;51.408;7.132;2024-01-10T12:07:03;101545.50;;;2.77;43.56
81181;BME280;70650;51.408;7.132;2024-01-10T12:09:29;101539.34;;;2.98;42.65
81181;BME280;70650;51.408;7.132;2024-01-10T12:11:55;101545.38;;;3.09;42.86
81181;BME280;70650;51.408;7.132;2024-01-10T12:14:23;101548.22;;;2.25;44.14
81181;BME280;70650;51.408;7.132;2024-01-10T12:16:51;101544.69;;;2.48;44.92
81181;BME280;70650;51.408;7.132;2024-01-10T12:19:17;101548.19;;;2.37;44.36
81181;BME280;70650;51.408;7.132;2024-01-10T12:21:43;101553.41;;;2.31;44.25
81181;BME280;70650;51.408;7.132;2024-01-10T12:24:10;101548.44;;;3.85;41.08
81181;BME280;70650;51.408;7.132;2024-01-10T12:26:35;101547.22;;;2.90;43.09
81181;BME280;70650;51.408;7.132;2024-01-10T12:29:01;101553.44;;;2.05;44.58
81181;BME280;70650;51.408;7.132;2024-01-10T12:31:30;101543.81;;;2.58;44.15
81181;BME280;70650;51.408;7.132;2024-01-10T12:33:56;101557.78;;;2.45;43.86
81181;BME280;70650;51.408;7.132;2024-01-10T12:36:21;101547.28;;;2.63;43.40
81181;BME280;70650;51.408;7.132;2024-01-10T12:38:47;101549.97;;;2.11;44.09
81181;BME280;70650;51.408;7.132;2024-01-10T12:41:15;101542.09;;;2.51;43.33
81181;BME280;70650;51.408;7.132;2024-01-10T12:43:42;101540.38;;;1.81;44.54
81181;BME280;70650;51.408;7.132;2024-01-10T12:46:11;101536.84;;;1.44;46.40
81181;BME280;70650;51.408;7.132;2024-01-10T12:48:38;101541.09;;;1.11;46.64
81181;BME280;70650;51.408;7.132;2024-01-10T12:51:09;101528.72;;;0.67;48.46
81181;BME280;70650;51.408;7.132;2024-01-10T12:53:38;101536.91;;;2.29;45.55